Time;durP1;ratioP1;P1;durP2;ratioP2;P2;SDS_P1;SDS_P2;PMS_P1;PMS_P2;Temp;Humidity;BMP_temperature;BMP_pressure;BME280_temperature;BME280_humidity;BME280_pressure;Samples;Min_cycle;Max_cycle;Signal;HPM_P1;HPM_P2
2021/12/01 00:01:12;;;;;;;12.73;7.17;;;3.20;99.90;;;;;;5022708;28;20297;-65
2021/12/01 00:03:41;;;;;;;13.07;7.70;;;3.20;99.90;;;;;;5024097;28;20208;-64
2021/12/01 00:06:10;;;;;;;14.47;8.43;;;3.20;99.90;;;;;;5017465;28;20214;-65
2021/12/01 00:08:37;;;;;;;13.97;7.43;;;3.20;99.90;;;;;;5027939;28;20242;-64
2021/12/01 00:11:04;;;;;;;11.10;7.40;;;3.10;99.90;;;;;;5030104;28;20221;-65
2021/12/01 00:13:32;;;;;;;12.53;7.20;;;3.10;99.90;;;;;;5023131;28;20338;-63
2021/12/01 00:16:02;;;;;;;13.20;7.90;;;3.10;99.90;;;;;;5017399;28;20249;-63
2021/12/01 00:18:29;;;;;;;11.73;7.00;;;3.10;99.90;;;;;;5010222;28;20258;-63
2021/12/01 00:20:56;;;;;;;13.23;7.80;;;3.10;99.90;;;;;;5015042;28;20302;-63
2021/12/01 00:23:23;;;;;;;10.87;7.00;;;3.20;99.90;;;;;;5023240;28;20290;-62
2021/12/01 00:25:50;;;;;;;10.97;6.90;;;3.20;99.90;;;;;;5021153;28;20287;-63
2021/12/01 00:28:18;;;;;;;10.40;7.50;;;3.20;99.90;;;;;;5025106;28;20274;-64
2021/12/01 00:30:45;;;;;;;10.20;7.33;;;3.20;99.90;;;;;;5021826;28;20674;-63
2021/12/01 00:33:17;;;;;;;8.87;6.60;;;3.10;99.90;;;;;;5021958;28;20235;-64
2021/12/01 00:35:44;;;;;;;8.83;6.43;;;3.10;99.90;;;;;;5016703;28;20211;-63
2021/12/01 00:38:11;;;;;;;8.43;6.77;;;3.10;99.90;;;;;;5023017;28;20298;-63
2021/12/01 00:40:38;;;;;;;8.67;6.53;;;3.20;99.90;;;;;;5010500;28;20719;-63
2021/12/01 00:43:05;;;;;;;9.00;6.23;;;3.10;99.90;;;;;;5013499;28;20286;-64
2021/12/01 00:45:33;;;;;;;8.27;6.27;;;3.10;99.90;;;;;;5018254;28;20646;-64
2021/12/01 00:48:00;;;;;;;7.83;6.27;;;3.10;99.90;;;;;;5024612;28;20234;-63
2021/12/01 00:50:31;;;;;;;10.40;6.77;;;3.10;99.90;;;;;;5014596;28;20203;-64
2021/12/01 00:53:01;;;;;;;8.73;5.63;;;3.10;99.90;;;;;;5020439;28;20235;-63
2021/12/01 00:55:28;;;;;;;7.93;6.03;;;3.10;99.90;;;;;;5026804;28;20215;-63
2021/12/01 00:57:56;;;;;;;8.77;6.13;;;3.00;99.90;;;;;;5024401;28;20256;-63
2021/12/01 01:00:25;;;;;;;7.20;5.50;;;3.00;99.90;;;;;;5028516;28;20651;-64
2021/12/01 01:02:53;;;;;;;8.23;5.80;;;3.00;99.90;;;;;;5023269;28;20316;-63
2021/12/01 01:05:20;;;;;;;10.37;6.73;;;2.90;99.90;;;;;;5016140;28;20342;-64
2021/12/01 01:07:49;;;;;;;8.10;6.20;;;2.90;99.90;;;;;;5021816;28;20293;-63
2021/12/01 01:10:34;;;;;;;9.07;5.90;;;2.90;99.90;;;;;;5021133;28;20293;-63
2021/12/01 01:18:35;;;;;;;9.80;7.13;;;2.90;99.90;;;;;;5025679;28;20381;-62
2021/12/01 01:21:02;;;;;;;11.13;6.33;;;2.90;99.90;;;;;;5018541;28;20298;-63
2021/12/01 01:23:31;;;;;;;11.80;6.53;;;2.90;99.90;;;;;;5021086;28;20247;-60
2021/12/01 01:25:58;;;;;;;8.83;5.97;;;2.90;99.90;;;;;;5020281;28;20645;-64
2021/12/01 01:28:25;;;;;;;9.07;6.80;;;2.90;99.90;;;;;;5020330;28;20736;-62
2021/12/01 01:30:54;;;;;;;9.73;6.83;;;2.90;99.90;;;;;;5020158;28;20209;-63
2021/12/01 01:33:21;;;;;;;9.13;5.83;;;2.90;99.90;;;;;;5023151;28;20318;-63
2021/12/01 01:35:49;;;;;;;11.20;7.37;;;2.90;99.90;;;;;;5014991;28;20214;-63
2021/12/01 01:38:16;;;;;;;10.43;6.93;;;2.90;99.90;;;;;;5020652;28;20289;-63
2021/12/01 01:40:45;;;;;;;12.07;7.57;;;2.90;99.90;;;;;;5025922;28;20213;-62
2021/12/01 01:43:13;;;;;;;11.70;7.80;;;2.80;99.90;;;;;;5012093;28;20282;-63
2021/12/01 01:45:40;;;;;;;11.10;7.27;;;2.90;99.90;;;;;;5021619;28;20208;-63
2021/12/01 01:48:11;;;;;;;10.03;7.37;;;2.80;99.90;;;;;;5026007;28;20239;-63
2021/12/01 01:50:41;;;;;;;11.90;7.57;;;2.80;99.90;;;;;;5020655;28;20285;-64
2021/12/01 01:53:11;;;;;;;11.00;7.47;;;2.80;99.90;;;;;;5017570;28;20219;-62
2021/12/01 01:55:41;;;;;;;10.57;7.30;;;2.80;99.90;;;;;;5025094;28;20275;-64
2021/12/01 01:58:09;;;;;;;12.93;7.90;;;2.80;99.90;;;;;;5012082;28;20357;-63
2021/12/01 02:00:44;;;;;;;9.70;7.30;;;2.80;99.90;;;;;;5028475;28;20265;-63
2021/12/01 02:03:12;;;;;;;12.07;7.30;;;2.80;99.90;;;;;;5018734;28;20234;-62
2021/12/01 02:05:39;;;;;;;10.33;7.53;;;2.80;99.90;;;;;;5026775;28;20285;-65
2021/12/01 02:08:14;;;;;;;11.83;7.43;;;2.80;99.90;;;;;;5016480;28;20580;-62
2021/12/01 02:10:42;;;;;;;11.30;7.67;;;2.80;99.90;;;;;;5016929;28;20210;-63
2021/12/01 02:13:10;;;;;;;8.50;6.47;;;2.70;99.90;;;;;;5020624;28;20301;-63
2021/12/01 02:15:37;;;;;;;9.67;7.33;;;2.70;99.90;;;;;;5027979;28;20249;-63
2021/12/01 02:18:04;;;;;;;10.63;7.67;;;2.70;99.90;;;;;;5031431;28;20291;-64
2021/12/01 02:20:32;;;;;;;10.90;7.87;;;2.70;99.90;;;;;;5020485;28;20234;-63
2021/12/01 02:23:00;;;;;;;9.47;7.17;;;2.70;99.90;;;;;;5019430;28;20348;-63
2021/12/01 02:25:28;;;;;;;11.77;7.67;;;2.70;99.90;;;;;;5021229;28;20806;-63
2021/12/01 02:27:55;;;;;;;9.50;7.03;;;2.70;99.90;;;;;;5023799;28;20286;-62
2021/12/01 02:30:23;;;;;;;11.53;7.50;;;2.70;99.90;;;;;;5018516;28;20321;-64
2021/12/01 02:32:50;;;;;;;12.23;7.90;;;2.70;99.90;;;;;;5025905;28;20298;-62
2021/12/01 02:35:17;;;;;;;10.77;7.57;;;2.70;99.90;;;;;;5025352;28;20230;-64
2021/12/01 02:37:45;;;;;;;9.30;7.33;;;2.70;99.90;;;;;;5012520;28;20672;-62
2021/12/01 02:40:13;;;;;;;9.37;6.63;;;2.60;99.90;;;;;;5016270;28;20206;-63
2021/12/01 02:42:40;;;;;;;8.87;6.63;;;2.70;99.90;;;;;;5027816;28;20222;-63
2021/12/01 02:45:08;;;;;;;11.00;7.60;;;2.70;99.90;;;;;;5018551;28;20243;-63
2021/12/01 02:47:35;;;;;;;10.97;7.67;;;2.70;99.90;;;;;;5029059;28;20210;-64
2021/12/01 02:50:02;;;;;;;9.63;7.50;;;2.70;99.90;;;;;;5009818;28;20207;-62
2021/12/01 02:52:34;;;;;;;10.90;7.63;;;2.70;99.90;;;;;;5027565;28;20238;-62
2021/12/01 02:55:05;;;;;;;11.00;7.50;;;2.70;99.90;;;;;;5014511;28;20211;-63
2021/12/01 02:57:42;;;;;;;10.67;7.90;;;2.70;99.90;;;;;;5013662;28;20290;-64
2021/12/01 03:00:10;;;;;;;11.30;7.70;;;2.70;99.90;;;;;;5022731;28;20668;-65
2021/12/01 03:02:38;;;;;;;12.47;8.17;;;2.70;99.90;;;;;;5028679;28;20550;-64
2021/12/01 03:05:06;;;;;;;12.03;8.50;;;2.70;99.90;;;;;;5014839;28;20203;-63
2021/12/01 03:07:34;;;;;;;13.17;8.47;;;2.60;99.90;;;;;;5021047;28;20694;-64
2021/12/01 03:10:01;;;;;;;12.63;8.13;;;2.70;99.90;;;;;;5020891;28;20758;-63
2021/12/01 03:12:30;;;;;;;13.63;9.03;;;2.60;99.90;;;;;;5009986;28;20322;-63
2021/12/01 03:14:57;;;;;;;14.10;8.33;;;2.60;99.90;;;;;;5012044;28;20777;-63
2021/12/01 03:17:27;;;;;;;11.43;7.77;;;2.60;99.90;;;;;;5014695;28;20333;-64
2021/12/01 03:19:54;;;;;;;10.40;7.50;;;2.70;99.90;;;;;;5022419;28;20209;-64
2021/12/01 03:22:20;;;;;;;13.53;8.13;;;2.70;99.90;;;;;;5030454;28;20297;-64
2021/12/01 03:24:47;;;;;;;12.97;8.77;;;2.70;99.90;;;;;;5021561;28;20207;-64
2021/12/01 03:27:15;;;;;;;12.90;8.03;;;2.60;99.90;;;;;;5027292;28;20415;-65
2021/12/01 03:29:45;;;;;;;14.83;8.70;;;2.60;99.90;;;;;;5016215;28;20237;-64
2021/12/01 03:32:13;;;;;;;10.50;6.93;;;2.60;99.90;;;;;;5027770;28;20206;-65
2021/12/01 03:34:42;;;;;;;10.20;7.23;;;2.60;99.90;;;;;;5023756;28;20743;-64
2021/12/01 03:37:09;;;;;;;10.60;7.23;;;2.60;99.90;;;;;;5027246;28;20590;-65
2021/12/01 03:39:36;;;;;;;12.50;7.87;;;2.60;99.90;;;;;;5025106;28;20231;-65
2021/12/01 03:42:03;;;;;;;12.10;8.17;;;2.60;99.90;;;;;;5017935;28;20266;-64
2021/12/01 03:44:30;;;;;;;10.67;7.63;;;2.60;99.90;;;;;;5012392;28;20216;-63
2021/12/01 03:46:58;;;;;;;11.43;7.90;;;2.60;99.90;;;;;;5009914;28;20298;-64
2021/12/01 03:49:25;;;;;;;9.70;7.27;;;2.60;99.90;;;;;;5011004;28;20214;-64
2021/12/01 03:51:52;;;;;;;9.17;6.23;;;2.50;99.90;;;;;;5027042;28;20260;-63
2021/12/01 03:54:19;;;;;;;9.40;6.93;;;2.50;99.90;;;;;;5019332;28;20677;-63
2021/12/01 03:56:46;;;;;;;10.33;6.73;;;2.40;99.90;;;;;;5010206;28;20314;-64
2021/12/01 03:59:13;;;;;;;9.90;6.53;;;2.30;99.90;;;;;;5013034;28;20294;-64
2021/12/01 04:01:40;;;;;;;8.37;6.33;;;2.40;99.90;;;;;;5009764;28;20211;-64
2021/12/01 04:04:08;;;;;;;9.07;6.83;;;2.30;99.90;;;;;;5022598;28;20210;-64
2021/12/01 04:06:35;;;;;;;8.70;6.23;;;2.30;99.90;;;;;;5017376;28;20678;-64
2021/12/01 04:09:04;;;;;;;9.63;7.00;;;2.30;99.90;;;;;;5019528;28;20215;-64
2021/12/01 04:11:31;;;;;;;9.93;7.00;;;2.30;99.90;;;;;;5029578;28;20254;-64
2021/12/01 04:13:58;;;;;;;9.03;6.70;;;2.20;99.90;;;;;;5015970;28;20721;-63
2021/12/01 04:16:25;;;;;;;12.43;7.53;;;2.20;99.90;;;;;;5030489;28;20322;-64
2021/12/01 04:18:52;;;;;;;10.33;7.10;;;2.20;99.90;;;;;;5016611;28;20302;-63
2021/12/01 04:21:20;;;;;;;9.33;6.50;;;2.10;99.90;;;;;;5020895;28;20246;-64
2021/12/01 04:23:48;;;;;;;9.40;6.73;;;2.10;99.90;;;;;;5019028;28;20704;-65
2021/12/01 04:26:19;;;;;;;9.93;7.17;;;2.10;99.90;;;;;;5024096;28;20199;-65
2021/12/01 04:28:46;;;;;;;8.83;6.60;;;2.10;99.90;;;;;;5024335;28;20294;-63
2021/12/01 04:31:13;;;;;;;10.93;7.33;;;2.10;99.90;;;;;;5026739;28;20669;-64
2021/12/01 04:33:39;;;;;;;9.60;6.53;;;2.00;99.90;;;;;;5013072;28;20218;-64
2021/12/01 04:36:07;;;;;;;9.60;7.10;;;2.00;99.90;;;;;;5026892;28;20284;-64
2021/12/01 04:38:36;;;;;;;11.17;7.03;;;2.00;99.90;;;;;;5015868;28;20254;-64
2021/12/01 04:41:03;;;;;;;9.33;6.83;;;2.00;99.90;;;;;;5016546;28;20314;-63
2021/12/01 04:43:30;;;;;;;9.57;7.00;;;1.90;99.90;;;;;;5029766;28;20207;-65
2021/12/01 04:46:00;;;;;;;11.30;6.87;;;1.90;99.90;;;;;;5031448;28;20746;-63
2021/12/01 04:48:27;;;;;;;8.90;6.43;;;1.90;99.90;;;;;;5028342;28;20210;-63
2021/12/01 04:50:54;;;;;;;9.40;6.57;;;1.90;99.90;;;;;;5013109;28;20733;-64
2021/12/01 04:53:21;;;;;;;9.07;6.47;;;1.80;99.90;;;;;;5014838;28;20728;-63
2021/12/01 04:55:50;;;;;;;9.77;6.73;;;1.70;99.90;;;;;;5023952;28;20632;-66
2021/12/01 04:58:16;;;;;;;9.47;7.10;;;1.70;99.90;;;;;;5017782;28;20230;-64
2021/12/01 05:00:43;;;;;;;7.97;6.13;;;1.70;99.90;;;;;;5025282;28;20728;-63
2021/12/01 05:03:10;;;;;;;9.17;6.43;;;1.60;99.90;;;;;;5025355;28;20218;-63
2021/12/01 05:05:37;;;;;;;10.70;6.63;;;1.70;99.90;;;;;;5017772;28;20205;-63
2021/12/01 05:08:05;;;;;;;9.30;6.23;;;1.60;99.90;;;;;;5012693;28;20705;-63
2021/12/01 05:10:32;;;;;;;8.67;6.40;;;1.50;99.90;;;;;;5026145;28;20294;-64
2021/12/01 05:13:00;;;;;;;10.83;7.47;;;1.50;99.90;;;;;;5012317;28;20360;-64
2021/12/01 05:15:27;;;;;;;12.37;7.67;;;1.50;99.90;;;;;;5025658;28;20288;-63
2021/12/01 05:17:54;;;;;;;10.27;6.83;;;1.50;99.90;;;;;;5022626;28;20298;-64
2021/12/01 05:20:21;;;;;;;8.67;6.20;;;1.50;99.90;;;;;;5017612;28;20211;-64
2021/12/01 05:22:48;;;;;;;11.00;7.07;;;1.50;99.90;;;;;;5016734;28;20229;-64
2021/12/01 05:25:15;;;;;;;8.87;6.50;;;1.40;99.90;;;;;;5019466;28;20262;-63
2021/12/01 05:27:41;;;;;;;11.20;7.50;;;1.50;99.90;;;;;;5011916;28;20213;-65
2021/12/01 05:30:11;;;;;;;11.20;7.57;;;1.40;99.90;;;;;;5014127;28;20296;-64
2021/12/01 05:32:38;;;;;;;12.73;7.73;;;1.40;99.90;;;;;;5013907;28;20293;-65
2021/12/01 05:35:06;;;;;;;11.37;7.70;;;1.40;99.90;;;;;;5016597;28;20408;-64
2021/12/01 05:37:33;;;;;;;10.43;7.03;;;1.30;99.90;;;;;;5011481;28;20265;-63
2021/12/01 05:39:59;;;;;;;12.43;7.73;;;1.30;99.90;;;;;;5020326;28;20340;-63
2021/12/01 05:42:26;;;;;;;11.83;7.40;;;1.20;99.90;;;;;;5014299;28;20290;-65
2021/12/01 05:44:53;;;;;;;10.87;7.37;;;1.20;99.90;;;;;;5012314;28;20242;-64
2021/12/01 05:47:22;;;;;;;10.60;7.43;;;1.20;99.90;;;;;;5014360;28;20211;-63
2021/12/01 05:49:48;;;;;;;9.33;6.90;;;1.20;99.90;;;;;;5023732;28;20234;-64
2021/12/01 05:52:17;;;;;;;11.07;7.27;;;1.20;99.90;;;;;;5031985;28;20246;-64
2021/12/01 05:54:46;;;;;;;12.37;8.00;;;1.10;99.90;;;;;;5018341;28;20235;-64
2021/12/01 05:57:13;;;;;;;10.53;7.47;;;1.10;99.90;;;;;;5017422;28;20227;-64
2021/12/01 05:59:40;;;;;;;12.13;8.60;;;1.10;99.90;;;;;;5020628;28;20276;-65
2021/12/01 06:02:07;;;;;;;10.50;8.13;;;1.10;99.90;;;;;;5017423;28;20286;-63
2021/12/01 06:04:35;;;;;;;13.63;8.00;;;1.10;99.90;;;;;;5026034;28;20206;-64
2021/12/01 06:07:02;;;;;;;11.00;7.20;;;1.10;99.90;;;;;;5015762;28;20290;-65
2021/12/01 06:09:29;;;;;;;10.23;7.83;;;1.10;99.90;;;;;;5022142;28;20261;-66
2021/12/01 06:11:56;;;;;;;11.87;8.23;;;1.10;99.90;;;;;;5025151;28;20293;-64
2021/12/01 06:14:23;;;;;;;10.60;7.40;;;1.20;99.90;;;;;;5017558;28;20235;-64
2021/12/01 06:16:50;;;;;;;11.03;7.80;;;1.20;99.90;;;;;;5014906;28;20305;-64
2021/12/01 06:19:17;;;;;;;10.70;8.17;;;1.20;99.90;;;;;;5024570;28;20222;-64
2021/12/01 06:21:45;;;;;;;11.63;7.87;;;1.30;99.90;;;;;;5010674;28;20211;-64
2021/12/01 06:24:12;;;;;;;12.77;8.37;;;1.30;99.90;;;;;;5024121;28;20563;-64
2021/12/01 06:26:39;;;;;;;12.93;8.07;;;1.30;99.90;;;;;;5019581;28;20288;-63
2021/12/01 06:29:06;;;;;;;11.57;7.80;;;1.30;99.90;;;;;;5027828;28;20244;-65
2021/12/01 06:31:33;;;;;;;13.83;8.50;;;1.30;99.90;;;;;;5017797;28;20262;-63
2021/12/01 06:34:00;;;;;;;9.97;8.07;;;1.30;99.90;;;;;;5024765;28;20324;-64
2021/12/01 06:36:27;;;;;;;10.53;8.40;;;1.40;99.90;;;;;;5014632;28;20313;-66
2021/12/01 06:38:59;;;;;;;11.10;7.57;;;1.40;99.90;;;;;;5020477;28;20750;-64
2021/12/01 06:41:25;;;;;;;12.10;8.40;;;1.40;99.90;;;;;;5024010;28;20203;-64
2021/12/01 06:43:52;;;;;;;11.90;8.30;;;1.50;99.90;;;;;;5011426;28;20298;-65
2021/12/01 06:46:19;;;;;;;10.83;7.67;;;1.50;99.90;;;;;;5016711;28;20286;-64
2021/12/01 06:48:46;;;;;;;13.97;8.37;;;1.50;99.90;;;;;;5027908;28;20248;-65
2021/12/01 06:51:13;;;;;;;13.40;8.97;;;1.50;99.90;;;;;;5018800;28;20939;-69
2021/12/01 06:53:40;;;;;;;14.17;8.47;;;1.60;99.90;;;;;;5010909;28;20203;-66
2021/12/01 06:56:09;;;;;;;13.77;8.73;;;1.60;99.90;;;;;;5010568;28;20503;-65
2021/12/01 06:58:36;;;;;;;13.00;8.63;;;1.60;99.90;;;;;;5015176;28;20574;-66
2021/12/01 07:01:05;;;;;;;12.33;8.50;;;1.70;99.90;;;;;;5016938;28;20495;-64
2021/12/01 07:03:32;;;;;;;15.63;8.90;;;1.70;99.90;;;;;;5023618;28;20592;-64
2021/12/01 07:05:59;;;;;;;16.97;8.90;;;1.80;99.90;;;;;;5017820;28;20633;-65
2021/12/01 07:08:26;;;;;;;14.17;9.43;;;1.80;99.90;;;;;;5024806;28;20703;-66
2021/12/01 07:10:54;;;;;;;16.97;9.70;;;1.80;99.90;;;;;;5022494;28;20242;-65
2021/12/01 07:13:22;;;;;;;15.03;9.60;;;1.80;99.90;;;;;;5022224;28;20219;-66
2021/12/01 07:15:49;;;;;;;14.17;9.57;;;1.90;99.90;;;;;;5024374;28;20313;-65
2021/12/01 07:18:16;;;;;;;15.10;10.43;;;1.90;99.90;;;;;;5021699;28;20238;-65
2021/12/01 07:20:45;;;;;;;15.93;9.93;;;2.00;99.90;;;;;;5024374;28;20234;-66
2021/12/01 07:23:12;;;;;;;15.83;10.67;;;2.00;99.90;;;;;;5023998;28;20210;-66
2021/12/01 07:25:39;;;;;;;16.47;10.37;;;2.00;99.90;;;;;;5011996;28;20295;-66
2021/12/01 07:28:06;;;;;;;15.37;10.23;;;2.10;99.90;;;;;;5019199;28;20629;-63
2021/12/01 07:30:37;;;;;;;14.60;10.50;;;2.10;99.90;;;;;;5015771;28;20199;-66
2021/12/01 07:33:04;;;;;;;17.00;11.07;;;2.10;99.90;;;;;;5013364;28;20236;-65
2021/12/01 07:35:31;;;;;;;15.43;10.23;;;2.20;99.90;;;;;;5015359;28;20262;-66
2021/12/01 07:37:59;;;;;;;17.33;11.43;;;2.10;99.90;;;;;;5010089;28;20219;-65
2021/12/01 07:40:26;;;;;;;15.97;11.77;;;2.20;99.90;;;;;;5016222;28;20245;-65
2021/12/01 07:42:53;;;;;;;17.07;10.83;;;2.30;99.90;;;;;;5016795;28;20286;-66
2021/12/01 07:45:20;;;;;;;15.93;11.10;;;2.30;99.90;;;;;;5012844;28;20226;-67
2021/12/01 07:47:48;;;;;;;20.77;11.60;;;2.40;99.90;;;;;;5015416;28;20292;-64
2021/12/01 07:50:15;;;;;;;18.53;12.00;;;2.50;99.90;;;;;;5028183;28;20250;-66
2021/12/01 07:52:42;;;;;;;18.97;11.47;;;2.50;99.90;;;;;;5022169;28;20207;-67
2021/12/01 07:55:10;;;;;;;16.60;11.80;;;2.60;99.90;;;;;;5025061;28;20214;-68
2021/12/01 07:57:37;;;;;;;17.10;12.43;;;2.60;99.90;;;;;;5023437;28;20257;-70
2021/12/01 08:00:06;;;;;;;19.83;12.93;;;2.60;99.90;;;;;;5020393;28;20242;-67
2021/12/01 08:02:35;;;;;;;19.23;12.47;;;2.60;99.90;;;;;;5029724;28;20718;-66
2021/12/01 08:05:03;;;;;;;17.07;12.30;;;2.80;99.90;;;;;;5025464;28;20691;-72
2021/12/01 08:07:34;;;;;;;22.00;13.77;;;2.60;99.90;;;;;;5021321;28;20238;-71
2021/12/01 08:10:01;;;;;;;18.13;12.07;;;2.70;99.90;;;;;;5030951;28;20589;-71
2021/12/01 08:12:28;;;;;;;18.27;12.20;;;2.70;99.90;;;;;;5026347;28;20206;-70
2021/12/01 08:14:55;;;;;;;20.13;12.20;;;2.70;99.90;;;;;;5016885;28;20246;-71
2021/12/01 08:17:22;;;;;;;19.20;11.80;;;2.70;99.90;;;;;;5018298;28;20406;-71
2021/12/01 08:19:49;;;;;;;18.47;12.00;;;2.70;99.90;;;;;;5021859;28;20208;-72
2021/12/01 08:22:18;;;;;;;18.07;12.00;;;2.70;99.90;;;;;;5020195;28;20628;-71
2021/12/01 08:24:45;;;;;;;18.10;12.67;;;2.80;99.90;;;;;;5031442;28;20234;-70
2021/12/01 08:27:13;;;;;;;21.10;13.00;;;2.80;99.90;;;;;;5020584;28;20257;-71
2021/12/01 08:29:40;;;;;;;20.63;12.43;;;2.90;99.90;;;;;;5020197;28;20218;-70
2021/12/01 08:32:08;;;;;;;21.63;13.30;;;3.00;99.90;;;;;;5020797;28;20650;-69
2021/12/01 08:34:35;;;;;;;18.10;13.43;;;3.20;99.90;;;;;;5022843;28;20273;-69
2021/12/01 08:37:02;;;;;;;17.77;12.77;;;3.50;99.90;;;;;;5013673;28;20223;-68
2021/12/01 08:39:30;;;;;;;16.97;11.70;;;4.10;99.90;;;;;;5021750;28;20614;-68
2021/12/01 08:41:57;;;;;;;17.40;12.10;;;4.30;99.90;;;;;;5015130;28;20195;-67
2021/12/01 08:44:24;;;;;;;14.53;10.73;;;4.40;99.90;;;;;;5019907;28;20294;-69
2021/12/01 08:46:51;;;;;;;16.23;11.77;;;4.90;99.90;;;;;;5013229;28;20231;-69
2021/12/01 08:49:18;;;;;;;15.27;10.97;;;6.40;99.90;;;;;;5013518;28;20699;-69
2021/12/01 08:51:45;;;;;;;14.67;10.70;;;7.20;99.90;;;;;;5013865;28;20239;-70
2021/12/01 08:54:13;;;;;;;15.10;11.47;;;7.30;99.90;;;;;;5022028;28;20268;-69
2021/12/01 08:56:42;;;;;;;15.57;10.93;;;7.20;99.90;;;;;;5027888;28;20318;-70
2021/12/01 08:59:09;;;;;;;13.97;10.70;;;7.00;99.90;;;;;;5022564;28;20294;-68
2021/12/01 09:01:36;;;;;;;14.77;10.23;;;6.90;99.90;;;;;;5019570;28;20290;-68
2021/12/01 09:04:03;;;;;;;16.77;10.73;;;6.70;99.90;;;;;;5016847;28;20238;-69
2021/12/01 09:06:30;;;;;;;14.57;10.67;;;6.50;99.90;;;;;;5022033;28;20290;-70
2021/12/01 09:08:57;;;;;;;13.70;10.57;;;6.30;99.90;;;;;;5019305;28;20211;-71
2021/12/01 09:11:24;;;;;;;17.00;10.80;;;6.90;99.90;;;;;;5022439;28;20235;-70
2021/12/01 09:13:52;;;;;;;14.17;10.57;;;6.10;99.90;;;;;;5013216;28;20700;-70
2021/12/01 09:16:21;;;;;;;14.07;10.53;;;5.90;99.90;;;;;;5029689;28;20325;-69
2021/12/01 09:18:48;;;;;;;15.77;10.37;;;5.60;99.90;;;;;;5025633;28;20242;-69
2021/12/01 09:21:18;;;;;;;16.57;11.37;;;5.30;99.90;;;;;;5028398;28;20215;-68
2021/12/01 09:23:45;;;;;;;15.33;10.77;;;5.00;99.90;;;;;;5021386;28;20211;-70
2021/12/01 09:26:12;;;;;;;16.73;10.97;;;4.80;99.90;;;;;;5021805;28;20626;-68
2021/12/01 09:28:39;;;;;;;17.27;12.50;;;4.60;99.90;;;;;;5023421;28;20211;-70
2021/12/01 09:31:07;;;;;;;16.60;10.33;;;4.50;99.90;;;;;;5025113;28;20305;-69
2021/12/01 09:33:34;;;;;;;15.07;10.77;;;4.50;99.90;;;;;;5013450;28;20247;-68
2021/12/01 09:36:02;;;;;;;13.23;9.70;;;4.60;99.90;;;;;;5016950;28;20273;-69
2021/12/01 09:38:29;;;;;;;14.80;11.00;;;4.50;99.90;;;;;;5018042;28;20239;-70
2021/12/01 09:40:58;;;;;;;18.70;11.13;;;4.50;99.90;;;;;;5019379;28;20218;-68
2021/12/01 09:43:31;;;;;;;13.97;9.63;;;4.40;99.90;;;;;;5015247;28;20211;-71
2021/12/01 09:45:59;;;;;;;13.40;9.57;;;4.40;99.90;;;;;;5018700;28;20222;-68
2021/12/01 09:48:29;;;;;;;12.03;8.17;;;4.30;99.90;;;;;;5012757;28;20288;-69
2021/12/01 09:50:56;;;;;;;10.80;8.27;;;4.30;99.90;;;;;;5018595;28;20641;-68
2021/12/01 09:53:23;;;;;;;12.30;8.20;;;4.20;99.90;;;;;;5023579;28;20739;-69
2021/12/01 09:55:50;;;;;;;10.97;8.10;;;4.20;99.90;;;;;;5018032;28;20770;-69
2021/12/01 09:58:22;;;;;;;14.00;9.77;;;4.40;99.90;;;;;;5019072;28;20573;-68
2021/12/01 10:00:52;;;;;;;12.07;8.10;;;4.60;99.90;;;;;;5012358;28;20679;-68
2021/12/01 10:03:19;;;;;;;16.70;9.80;;;4.90;99.90;;;;;;5012355;28;20514;-69
2021/12/01 10:06:07;;;;;;;17.27;9.57;;;5.00;99.90;;;;;;5016867;28;20243;-67
2021/12/01 10:08:36;;;;;;;16.37;10.57;;;5.00;99.90;;;;;;5019446;28;20203;-69
2021/12/01 10:11:06;;;;;;;16.70;11.50;;;5.00;99.90;;;;;;5015897;28;20687;-71
2021/12/01 10:13:34;;;;;;;18.50;11.40;;;4.90;99.90;;;;;;5019408;28;20273;-69
2021/12/01 10:16:05;;;;;;;18.73;13.68;;;5.20;99.90;;;;;;5010438;28;20545;-68
2021/12/01 10:18:37;;;;;;;15.43;10.97;;;4.70;99.90;;;;;;5017973;28;20207;-69
2021/12/01 10:21:09;;;;;;;13.30;9.07;;;4.70;99.90;;;;;;5012459;28;20222;-70
2021/12/01 10:23:38;;;;;;;14.33;9.67;;;4.60;99.90;;;;;;5025998;28;20234;-68
2021/12/01 10:26:18;;;;;;;14.17;9.90;;;4.70;99.90;;;;;;5025447;28;20208;-70
2021/12/01 10:28:48;;;;;;;15.63;9.90;;;4.80;99.90;;;;;;5015427;28;20199;-69
2021/12/01 10:31:16;;;;;;;17.73;10.20;;;4.90;99.90;;;;;;5011435;28;20242;-68
2021/12/01 10:33:43;;;;;;;16.03;9.43;;;5.00;99.90;;;;;;5011764;28;20203;-69
2021/12/01 10:36:12;;;;;;;15.27;9.97;;;5.10;99.90;;;;;;5018544;28;20627;-69
2021/12/01 10:38:45;;;;;;;15.17;11.03;;;5.10;99.90;;;;;;5017883;28;20322;-69
2021/12/01 10:41:15;;;;;;;13.87;9.73;;;5.10;99.90;;;;;;5015369;28;20207;-69
2021/12/01 10:43:47;;;;;;;14.33;9.93;;;4.90;99.90;;;;;;5019614;28;20656;-67
2021/12/01 10:46:16;;;;;;;13.73;10.57;;;4.80;99.90;;;;;;5011140;28;20238;-67
2021/12/01 10:48:44;;;;;;;14.77;10.43;;;4.70;99.90;;;;;;5011129;28;20670;-69
2021/12/01 10:51:31;;;;;;;16.20;9.67;;;4.70;99.90;;;;;;5012008;28;20589;-69
2021/12/01 10:53:59;;;;;;;13.80;9.70;;;4.60;99.90;;;;;;5012829;28;20337;-70
2021/12/01 10:56:26;;;;;;;14.27;9.23;;;4.60;99.90;;;;;;5023224;28;20256;-69
2021/12/01 10:58:53;;;;;;;18.43;10.03;;;4.50;99.90;;;;;;5029523;28;20249;-69
2021/12/01 11:01:22;;;;;;;14.67;9.67;;;4.50;99.90;;;;;;5018752;28;20262;-69
2021/12/01 11:03:50;;;;;;;15.90;10.37;;;4.50;99.90;;;;;;5025340;28;20875;-69
2021/12/01 11:06:21;;;;;;;14.67;9.80;;;4.50;99.90;;;;;;5010465;28;20195;-70
2021/12/01 11:08:55;;;;;;;14.63;9.23;;;4.50;99.90;;;;;;5024555;28;20515;-70
2021/12/01 11:11:24;;;;;;;16.40;10.07;;;4.50;99.90;;;;;;5021192;28;20198;-68
2021/12/01 11:13:52;;;;;;;15.23;10.00;;;4.50;99.90;;;;;;5013424;28;20254;-69
2021/12/01 11:16:19;;;;;;;13.07;8.97;;;4.50;99.90;;;;;;5014446;28;20321;-69
2021/12/01 11:18:48;;;;;;;13.53;9.40;;;4.50;99.90;;;;;;5029099;28;20264;-68
2021/12/01 11:21:17;;;;;;;13.17;9.27;;;4.50;99.90;;;;;;5018136;28;20218;-69
2021/12/01 11:23:47;;;;;;;15.13;9.03;;;4.40;99.90;;;;;;5016241;28;20226;-69
2021/12/01 11:26:17;;;;;;;12.57;8.20;;;4.40;99.90;;;;;;5022887;28;20234;-69
2021/12/01 11:28:49;;;;;;;12.47;9.07;;;4.30;99.90;;;;;;5012463;28;20254;-70
2021/12/01 11:31:18;;;;;;;15.70;8.43;;;4.20;99.90;;;;;;5016522;28;20290;-70
2021/12/01 11:33:46;;;;;;;12.70;8.87;;;4.30;99.90;;;;;;5022382;28;20719;-69
2021/12/01 11:36:15;;;;;;;11.57;8.50;;;4.20;99.90;;;;;;5010239;28;20281;-71
2021/12/01 11:38:43;;;;;;;13.97;8.50;;;4.10;99.90;;;;;;5021475;28;20294;-70
2021/12/01 11:41:11;;;;;;;13.57;8.33;;;4.20;99.90;;;;;;5025531;28;20241;-70
2021/12/01 11:43:39;;;;;;;12.23;8.53;;;4.10;99.90;;;;;;5011281;28;20215;-69
2021/12/01 11:46:08;;;;;;;11.17;8.20;;;4.00;99.90;;;;;;5013632;28;20210;-68
2021/12/01 11:48:39;;;;;;;12.47;8.80;;;4.00;99.90;;;;;;5009702;28;20311;-68
2021/12/01 11:51:13;;;;;;;12.40;8.83;;;3.90;99.90;;;;;;5017266;28;20207;-70
2021/12/01 11:53:43;;;;;;;12.17;9.40;;;3.90;99.90;;;;;;5009508;28;20288;-69
2021/12/01 11:56:17;;;;;;;12.07;8.23;;;3.90;99.90;;;;;;5021174;28;20223;-68
2021/12/01 11:59:19;;;;;;;12.13;8.43;;;3.90;99.90;;;;;;5011168;28;20294;-69
2021/12/01 12:01:51;;;;;;;12.80;8.77;;;3.90;99.90;;;;;;5009453;28;20206;-69
2021/12/01 12:04:20;;;;;;;13.03;9.10;;;3.90;99.90;;;;;;5011013;28;20226;-68
2021/12/01 12:06:49;;;;;;;11.97;8.40;;;3.90;99.90;;;;;;5020141;28;20306;-69
2021/12/01 12:09:18;;;;;;;12.10;8.77;;;3.90;99.90;;;;;;5024005;28;20206;-69
2021/12/01 12:11:49;;;;;;;13.13;8.53;;;3.90;99.90;;;;;;5014646;28;20211;-70
2021/12/01 12:14:20;;;;;;;12.37;8.93;;;3.90;99.90;;;;;;5021384;28;20322;-69
2021/12/01 12:17:05;;;;;;;12.67;8.97;;;3.80;99.90;;;;;;5027493;28;20305;-69
2021/12/01 12:19:56;;;;;;;13.93;9.23;;;3.80;99.90;;;;;;5020471;28;20330;-69
2021/12/01 12:22:31;;;;;;;12.60;8.30;;;3.80;99.90;;;;;;5027440;28;20287;-69
2021/12/01 12:24:59;;;;;;;12.50;8.33;;;3.80;99.90;;;;;;5018396;28;20607;-69
2021/12/01 12:27:37;;;;;;;11.43;8.30;;;3.90;99.90;;;;;;5013614;28;20207;-68
2021/12/01 12:30:09;;;;;;;12.37;7.77;;;3.90;99.90;;;;;;5017898;28;20207;-70
2021/12/01 12:32:38;;;;;;;12.10;8.67;;;3.90;99.90;;;;;;5011863;28;20259;-69
2021/12/01 12:35:08;;;;;;;12.77;8.73;;;4.00;99.90;;;;;;5009160;28;20224;-69
2021/12/01 12:37:36;;;;;;;10.83;8.97;;;4.00;99.90;;;;;;5012505;28;20298;-68
2021/12/01 12:40:08;;;;;;;11.73;8.10;;;4.00;99.90;;;;;;5023711;28;20290;-68
2021/12/01 12:42:36;;;;;;;12.43;8.77;;;3.90;99.90;;;;;;5017560;28;20669;-68
2021/12/01 12:45:05;;;;;;;12.53;8.33;;;4.00;99.90;;;;;;5019010;28;20250;-68
2021/12/01 12:47:49;;;;;;;12.37;8.07;;;4.00;99.90;;;;;;5022736;28;20228;-69
2021/12/01 12:50:18;;;;;;;11.87;7.93;;;3.90;99.90;;;;;;5018155;28;20249;-68
2021/12/01 12:52:46;;;;;;;11.33;7.83;;;3.90;99.90;;;;;;5031155;28;20307;-70
2021/12/01 12:55:47;;;;;;;12.27;8.40;;;3.90;99.90;;;;;;5021643;28;20269;-70
2021/12/01 12:58:16;;;;;;;13.37;8.10;;;3.90;99.90;;;;;;5019704;28;20213;-70